createdAt,value
2023-05-21T00:00:12.233Z,11.82
2023-05-21T00:02:41.415Z,11.98
2023-05-21T00:05:15.043Z,12.77
2023-05-21T00:07:44.214Z,12.60
2023-05-21T00:10:13.239Z,12.68
2023-05-21T00:12:42.865Z,12.52
2023-05-21T00:15:12.290Z,13.07
2023-05-21T00:17:41.307Z,12.10
2023-05-21T00:20:12.472Z,13.23
2023-05-21T00:22:42.540Z,12.38
2023-05-21T00:25:12.263Z,15.00
2023-05-21T00:27:41.328Z,13.93
2023-05-21T00:30:10.599Z,13.90
2023-05-21T00:32:39.314Z,12.73
2023-05-21T00:35:09.326Z,12.60
2023-05-21T00:37:39.513Z,11.63
2023-05-21T00:40:09.504Z,12.65
2023-05-21T00:42:40.193Z,12.75
2023-05-21T00:45:10.434Z,13.40
2023-05-21T00:47:39.734Z,11.70
2023-05-21T00:50:10.239Z,13.10
2023-05-21T00:52:42.921Z,13.43
2023-05-21T00:55:12.038Z,12.18
2023-05-21T00:57:42.697Z,14.43
2023-05-21T01:00:13.310Z,12.13
2023-05-21T01:02:42.431Z,14.63
2023-05-21T01:05:12.162Z,11.20
2023-05-21T01:07:43.485Z,13.88
2023-05-21T01:10:13.621Z,12.90
2023-05-21T01:12:46.234Z,11.85
2023-05-21T01:15:15.394Z,12.82
2023-05-21T01:17:46.168Z,12.45
2023-05-21T01:20:18.408Z,12.88
2023-05-21T01:22:54.791Z,13.07
2023-05-21T01:25:24.315Z,11.85
2023-05-21T01:27:53.730Z,12.80
2023-05-21T01:30:23.758Z,12.18
2023-05-21T01:33:00.419Z,15.38
2023-05-21T01:35:32.720Z,12.57
2023-05-21T01:38:10.441Z,13.05
2023-05-21T01:40:46.880Z,13.25
2023-05-21T01:43:17.403Z,14.15
2023-05-21T01:45:48.682Z,12.50
2023-05-21T01:48:18.648Z,15.13
2023-05-21T01:50:47.629Z,12.75
2023-05-21T01:53:17.819Z,13.00
2023-05-21T01:55:47.191Z,13.43
2023-05-21T01:58:17.134Z,13.00
2023-05-21T02:00:46.763Z,13.13
2023-05-21T02:03:16.540Z,13.85
2023-05-21T02:05:46.070Z,13.25
2023-05-21T02:08:15.483Z,14.50
2023-05-21T02:10:46.055Z,13.68
2023-05-21T02:13:14.854Z,13.35
2023-05-21T02:15:44.967Z,14.40
2023-05-21T02:18:18.641Z,14.93
2023-05-21T02:20:47.344Z,12.82
2023-05-21T02:23:16.191Z,15.65
2023-05-21T02:25:46.434Z,15.45
2023-05-21T02:28:16.086Z,14.10
2023-05-21T02:30:44.819Z,13.82
2023-05-21T02:33:15.548Z,15.35
2023-05-21T02:35:44.763Z,14.35
2023-05-21T02:38:13.887Z,14.77
2023-05-21T02:40:42.739Z,17.45
2023-05-21T02:43:14.821Z,14.13
2023-05-21T02:45:45.920Z,15.25
2023-05-21T02:48:14.774Z,14.40
2023-05-21T02:50:44.010Z,15.43
2023-05-21T02:53:12.853Z,15.35
2023-05-21T02:55:42.181Z,15.35
2023-05-21T02:58:13.680Z,13.60
2023-05-21T03:00:42.734Z,14.98
2023-05-21T03:03:11.917Z,14.45
2023-05-21T03:05:41.459Z,17.70
2023-05-21T03:08:10.185Z,14.93
2023-05-21T03:10:39.038Z,17.10
2023-05-21T03:13:09.731Z,16.00
2023-05-21T03:15:40.594Z,15.15
2023-05-21T03:20:43.984Z,16.63
2023-05-21T03:23:16.385Z,16.20
2023-05-21T03:25:47.330Z,17.48
2023-05-21T03:28:17.824Z,14.52
2023-05-21T03:30:51.273Z,14.80
2023-05-21T03:33:38.196Z,17.27
2023-05-21T03:36:19.635Z,15.45
2023-05-21T03:38:48.428Z,16.65
2023-05-21T03:41:17.348Z,15.68
2023-05-21T03:43:50.374Z,15.43
2023-05-21T03:46:22.315Z,16.13
2023-05-21T03:49:02.782Z,18.45
2023-05-21T03:51:33.893Z,16.52
2023-05-21T03:54:02.672Z,17.80
2023-05-21T03:56:31.343Z,18.17
2023-05-21T03:59:00.036Z,16.60
2023-05-21T04:01:30.825Z,17.40
2023-05-21T04:04:00.028Z,15.63
2023-05-21T04:06:30.327Z,18.67
2023-05-21T04:08:59.456Z,18.38
2023-05-21T04:11:28.281Z,16.02
2023-05-21T04:13:56.975Z,15.60
2023-05-21T04:16:25.939Z,15.80
2023-05-21T04:18:56.955Z,17.58
2023-05-21T04:21:28.531Z,16.83
2023-05-21T04:23:57.697Z,21.20
2023-05-21T04:26:50.076Z,14.77
2023-05-21T04:29:21.311Z,16.10
2023-05-21T04:31:51.999Z,16.75
2023-05-21T04:34:22.326Z,16.67
2023-05-21T04:36:52.086Z,16.73
2023-05-21T04:39:20.944Z,16.95
2023-05-21T04:41:50.899Z,14.63
2023-05-21T04:44:19.863Z,15.20
2023-05-21T04:46:49.190Z,14.73
2023-05-21T04:49:21.110Z,14.57
2023-05-21T04:51:51.364Z,14.18
2023-05-21T04:54:20.080Z,14.32
2023-05-21T04:56:48.873Z,15.70
2023-05-21T04:59:18.817Z,14.13
2023-05-21T05:01:48.379Z,16.23
2023-05-21T05:04:17.082Z,13.27
2023-05-21T05:06:46.171Z,14.60
2023-05-21T05:09:16.378Z,14.63
2023-05-21T05:11:45.495Z,14.43
2023-05-21T05:14:14.323Z,14.00
2023-05-21T05:16:44.516Z,13.60
2023-05-21T05:19:13.262Z,13.65
2023-05-21T05:21:42.156Z,14.50
2023-05-21T05:24:10.938Z,15.27
2023-05-21T05:26:41.334Z,13.13
2023-05-21T05:29:10.125Z,13.35
2023-05-21T05:31:39.008Z,13.35
2023-05-21T05:34:08.253Z,13.80
2023-05-21T05:36:37.100Z,13.27
2023-05-21T05:39:06.115Z,14.80
2023-05-21T05:41:34.871Z,14.68
2023-05-21T05:44:05.973Z,15.30
2023-05-21T05:46:38.322Z,13.07
2023-05-21T05:49:07.744Z,13.18
2023-05-21T05:51:36.493Z,14.07
2023-05-21T05:54:05.419Z,12.18
2023-05-21T05:56:35.221Z,13.10
2023-05-21T05:59:07.648Z,16.38
2023-05-21T06:01:39.285Z,12.18
2023-05-21T06:04:08.480Z,12.70
2023-05-21T06:06:38.822Z,13.98
2023-05-21T06:09:07.580Z,13.65
2023-05-21T06:11:39.499Z,11.65
2023-05-21T06:14:09.740Z,12.93
2023-05-21T06:16:38.579Z,11.98
2023-05-21T06:19:07.387Z,11.73
2023-05-21T06:21:36.225Z,17.33
2023-05-21T06:24:07.766Z,11.57
2023-05-21T06:26:36.562Z,12.13
2023-05-21T06:29:05.752Z,12.13
2023-05-21T06:31:36.088Z,11.25
2023-05-21T06:34:05.272Z,11.77
2023-05-21T06:36:35.108Z,11.40
2023-05-21T06:39:04.080Z,12.88
2023-05-21T06:41:33.363Z,12.57
2023-05-21T06:44:06.263Z,12.70
2023-05-21T06:46:48.502Z,11.65
2023-05-21T06:49:17.211Z,11.95
2023-05-21T06:51:46.034Z,12.00
2023-05-21T06:54:15.323Z,12.95
2023-05-21T06:56:44.504Z,11.85
2023-05-21T06:59:13.342Z,11.63
2023-05-21T07:01:44.404Z,12.00
2023-05-21T07:04:14.857Z,12.32
2023-05-21T07:06:44.988Z,12.18
2023-05-21T07:09:13.793Z,11.77
2023-05-21T07:11:42.576Z,11.93
2023-05-21T07:14:12.044Z,13.35
2023-05-21T07:16:40.721Z,11.90
2023-05-21T07:19:10.086Z,11.90
2023-05-21T07:21:40.661Z,11.75
2023-05-21T07:24:09.869Z,12.73
2023-05-21T07:26:41.787Z,12.52
2023-05-21T07:29:10.833Z,10.95
2023-05-21T07:31:40.130Z,11.60
2023-05-21T07:34:09.510Z,12.27
2023-05-21T07:36:39.803Z,11.30
2023-05-21T07:39:08.842Z,11.70
2023-05-21T07:41:39.178Z,11.05
2023-05-21T07:44:09.927Z,13.00
2023-05-21T07:46:44.815Z,12.35
2023-05-21T07:49:17.078Z,14.25
2023-05-21T07:51:48.958Z,12.45
2023-05-21T07:54:17.922Z,11.43
2023-05-21T07:56:47.201Z,13.23
2023-05-21T07:59:29.913Z,11.30
2023-05-21T08:01:58.609Z,13.50
2023-05-21T08:04:27.715Z,11.80
2023-05-21T08:06:58.134Z,11.82
2023-05-21T08:09:27.154Z,14.38
2023-05-21T08:11:56.280Z,12.73
2023-05-21T08:14:24.943Z,12.02
2023-05-21T08:16:53.792Z,11.93
2023-05-21T08:19:22.591Z,11.95
2023-05-21T08:21:52.963Z,10.88
2023-05-21T08:24:24.830Z,13.32
2023-05-21T08:26:53.528Z,11.13
2023-05-21T08:29:22.301Z,11.25
2023-05-21T08:31:51.297Z,11.30
2023-05-21T08:34:20.174Z,11.43
2023-05-21T08:36:58.405Z,11.13
2023-05-21T08:39:51.394Z,11.95
2023-05-21T08:42:36.907Z,11.93
2023-05-21T08:45:09.359Z,11.80
2023-05-21T08:47:38.311Z,10.75
2023-05-21T08:50:12.005Z,12.10
2023-05-21T08:52:41.261Z,11.98
2023-05-21T08:55:12.030Z,11.38
2023-05-21T08:57:45.557Z,12.20
2023-05-21T09:00:18.016Z,10.60
2023-05-21T09:02:46.899Z,11.25
2023-05-21T09:05:19.539Z,11.52
2023-05-21T09:07:55.181Z,11.18
2023-05-21T09:10:38.497Z,12.93
2023-05-21T09:13:08.152Z,16.05
2023-05-21T09:15:38.223Z,11.48
2023-05-21T09:18:08.205Z,11.30
2023-05-21T09:20:49.551Z,13.15
2023-05-21T09:23:19.522Z,11.38
2023-05-21T09:25:52.938Z,10.85
2023-05-21T09:28:31.285Z,11.40
2023-05-21T09:31:05.284Z,12.50
2023-05-21T09:33:35.113Z,10.88
2023-05-21T09:36:04.387Z,10.93
2023-05-21T09:38:36.044Z,10.00
2023-05-21T09:41:07.867Z,11.02
2023-05-21T09:43:37.813Z,12.85
2023-05-21T09:46:07.100Z,11.25
2023-05-21T09:48:37.394Z,12.65
2023-05-21T09:51:13.491Z,11.52
2023-05-21T09:53:53.086Z,14.07
2023-05-21T09:56:29.520Z,12.13
2023-05-21T09:59:00.638Z,11.93
2023-05-21T10:01:29.859Z,11.85
2023-05-21T10:04:00.247Z,12.70
2023-05-21T10:06:30.300Z,12.00
2023-05-21T10:09:02.108Z,11.10
2023-05-21T10:11:34.948Z,11.85
2023-05-21T10:14:07.725Z,12.52
2023-05-21T10:16:37.768Z,12.38
2023-05-21T10:19:11.023Z,11.85
2023-05-21T10:21:41.225Z,11.00
2023-05-21T10:24:12.177Z,12.07
2023-05-21T10:26:43.063Z,11.68
2023-05-21T10:29:12.402Z,12.10
2023-05-21T10:31:41.573Z,11.27
2023-05-21T10:34:11.841Z,10.82
2023-05-21T10:36:41.460Z,10.93
2023-05-21T10:39:11.114Z,10.98
2023-05-21T10:41:49.012Z,11.45
2023-05-21T10:44:25.783Z,10.77
2023-05-21T10:47:29.279Z,10.77
2023-05-21T10:50:27.968Z,10.90
2023-05-21T10:53:10.658Z,9.85
2023-05-21T10:56:00.578Z,11.32
2023-05-21T10:58:48.880Z,10.65
2023-05-21T11:01:19.514Z,10.98
2023-05-21T11:03:49.256Z,10.85
2023-05-21T11:06:25.607Z,12.00
2023-05-21T11:08:55.731Z,10.52
2023-05-21T11:11:43.818Z,12.90
2023-05-21T11:14:36.384Z,10.25
2023-05-21T11:17:06.266Z,10.65
2023-05-21T11:19:39.808Z,10.07
2023-05-21T11:22:10.440Z,9.77
2023-05-21T11:24:41.401Z,9.82
2023-05-21T11:27:10.330Z,9.52
2023-05-21T11:29:45.547Z,10.88
2023-05-21T11:32:17.579Z,8.98
2023-05-21T11:34:49.904Z,10.48
2023-05-21T11:37:30.180Z,9.48
2023-05-21T11:40:17.399Z,8.73
2023-05-21T11:42:51.158Z,9.80
2023-05-21T11:45:22.448Z,8.88
2023-05-21T11:47:52.849Z,11.10
2023-05-21T11:50:22.018Z,11.57
2023-05-21T11:52:51.505Z,8.70
2023-05-21T11:55:23.658Z,12.25
2023-05-21T11:57:55.818Z,9.70
2023-05-21T12:00:25.809Z,9.80
2023-05-21T12:02:56.412Z,9.57
2023-05-21T12:05:27.282Z,11.13
2023-05-21T12:07:56.712Z,8.85
2023-05-21T12:10:25.476Z,8.48
2023-05-21T12:12:57.022Z,7.45
2023-05-21T12:15:28.594Z,7.88
2023-05-21T12:17:58.032Z,9.00
2023-05-21T12:20:30.388Z,8.07
2023-05-21T12:23:00.787Z,7.13
2023-05-21T12:25:32.144Z,7.43
2023-05-21T12:28:02.132Z,7.80
2023-05-21T12:30:32.404Z,8.73
2023-05-21T12:33:03.436Z,8.35
2023-05-21T12:35:32.860Z,9.93
2023-05-21T12:38:04.739Z,9.60
2023-05-21T12:40:39.010Z,8.57
2023-05-21T12:43:08.739Z,8.25
2023-05-21T12:45:40.982Z,9.90
2023-05-21T12:48:09.756Z,9.68
2023-05-21T12:50:42.275Z,10.10
2023-05-21T12:53:12.465Z,8.45
2023-05-21T12:55:41.716Z,7.78
2023-05-21T12:58:14.334Z,7.20
2023-05-21T13:00:45.848Z,9.43
2023-05-21T13:03:14.580Z,7.38
2023-05-21T13:05:50.620Z,6.75
2023-05-21T13:08:19.861Z,10.10
2023-05-21T13:10:48.811Z,8.50
2023-05-21T13:13:17.733Z,9.38
2023-05-21T13:15:47.918Z,6.97
2023-05-21T13:18:16.973Z,6.53
2023-05-21T13:20:45.558Z,7.47
2023-05-21T13:23:14.372Z,8.07
2023-05-21T13:25:49.803Z,7.03
2023-05-21T13:28:23.881Z,6.55
2023-05-21T13:30:55.158Z,6.70
2023-05-21T13:33:24.319Z,6.93
2023-05-21T13:35:53.140Z,6.72
2023-05-21T13:38:21.708Z,6.93
2023-05-21T13:40:50.292Z,8.32
2023-05-21T13:43:19.886Z,6.68
2023-05-21T13:45:49.929Z,7.90
2023-05-21T13:48:20.429Z,6.45
2023-05-21T13:50:49.268Z,7.90
2023-05-21T13:53:17.854Z,6.75
2023-05-21T13:55:46.501Z,6.20
2023-05-21T13:58:15.203Z,8.75
2023-05-21T14:00:43.862Z,6.50
2023-05-21T14:03:12.789Z,8.35
2023-05-21T14:05:43.143Z,6.50
2023-05-21T14:08:11.838Z,6.07
2023-05-21T14:10:40.380Z,5.55
2023-05-21T14:13:19.190Z,7.72
2023-05-21T14:15:48.950Z,6.00
2023-05-21T14:18:17.826Z,6.53
2023-05-21T14:20:48.100Z,6.97
2023-05-21T14:23:16.753Z,6.28
2023-05-21T14:25:45.477Z,7.55
2023-05-21T14:28:14.179Z,6.75
2023-05-21T14:30:42.701Z,7.15
2023-05-21T14:33:11.619Z,7.65
2023-05-21T14:35:41.494Z,6.30
2023-05-21T14:38:11.997Z,8.85
2023-05-21T14:40:40.763Z,6.25
2023-05-21T14:43:09.401Z,8.82
2023-05-21T14:45:38.332Z,6.75
2023-05-21T14:48:08.758Z,6.40
2023-05-21T14:50:37.496Z,6.85
2023-05-21T14:53:06.896Z,10.50
2023-05-21T14:55:37.598Z,9.50
2023-05-21T14:58:06.796Z,7.25
2023-05-21T15:00:37.085Z,6.80
2023-05-21T15:03:06.328Z,6.53
2023-05-21T15:05:36.232Z,8.32
2023-05-21T15:08:06.082Z,7.80
2023-05-21T15:10:36.572Z,6.90
2023-05-21T15:13:05.655Z,10.57
2023-05-21T15:15:34.404Z,8.20
2023-05-21T15:18:03.114Z,7.05
2023-05-21T15:20:31.890Z,6.93
2023-05-21T15:23:15.334Z,8.38
2023-05-21T15:25:46.755Z,6.60
2023-05-21T15:28:15.300Z,6.45
2023-05-21T15:30:43.951Z,9.23
2023-05-21T15:33:12.847Z,7.38
2023-05-21T15:35:42.020Z,8.25
2023-05-21T15:38:11.183Z,6.85
2023-05-21T15:40:42.180Z,6.40
2023-05-21T15:43:12.262Z,6.28
2023-05-21T15:45:40.966Z,8.13
2023-05-21T15:48:09.633Z,8.73
2023-05-21T15:50:38.252Z,6.30
2023-05-21T15:53:06.860Z,7.60
2023-05-21T15:55:35.917Z,6.07
2023-05-21T15:58:04.949Z,6.85
2023-05-21T16:00:35.611Z,6.88
2023-05-21T16:03:04.610Z,8.02
2023-05-21T16:05:33.442Z,7.55
2023-05-21T16:08:02.129Z,6.40
2023-05-21T16:10:30.746Z,8.25
2023-05-21T16:12:59.664Z,9.15
2023-05-21T16:15:32.484Z,6.57
2023-05-21T16:18:04.628Z,7.65
2023-05-21T16:20:33.580Z,8.73
2023-05-21T16:23:03.745Z,6.93
2023-05-21T16:25:32.571Z,8.30
2023-05-21T16:28:01.997Z,7.13
2023-05-21T16:30:31.033Z,7.72
2023-05-21T16:32:59.873Z,7.85
2023-05-21T16:35:31.215Z,7.47
2023-05-21T16:38:00.775Z,6.45
2023-05-21T16:40:29.774Z,6.85
2023-05-21T16:45:28.794Z,6.70
2023-05-21T16:47:57.831Z,6.88
2023-05-21T16:50:26.620Z,6.28
2023-05-21T16:52:56.918Z,6.75
2023-05-21T16:55:25.832Z,9.80
2023-05-21T16:57:54.745Z,7.00
2023-05-21T17:00:23.641Z,7.03
2023-05-21T17:02:52.812Z,6.93
2023-05-21T17:05:21.978Z,8.82
2023-05-21T17:07:53.737Z,7.03
2023-05-21T17:11:18.999Z,10.40
2023-05-21T17:14:34.393Z,8.27
2023-05-21T17:17:07.641Z,7.68
2023-05-21T17:19:37.962Z,8.13
2023-05-21T17:22:07.477Z,7.30
2023-05-21T17:24:36.565Z,6.35
2023-05-21T17:27:09.658Z,7.50
2023-05-21T17:29:38.749Z,10.15
2023-05-21T17:32:08.076Z,6.55
2023-05-21T17:34:37.452Z,7.32
2023-05-21T17:37:06.662Z,6.90
2023-05-21T17:39:35.579Z,7.95
2023-05-21T17:42:04.475Z,7.07
2023-05-21T17:44:34.704Z,7.10
2023-05-21T17:47:03.878Z,6.85
2023-05-21T17:49:32.886Z,7.72
2023-05-21T17:52:04.550Z,8.40
2023-05-21T17:54:58.622Z,7.60
2023-05-21T17:57:30.263Z,7.18
2023-05-21T18:00:04.614Z,9.25
2023-05-21T18:02:45.562Z,9.63
2023-05-21T18:05:15.165Z,9.07
2023-05-21T18:07:44.125Z,8.35
2023-05-21T18:10:15.571Z,7.88
2023-05-21T18:12:46.466Z,8.38
2023-05-21T18:15:18.170Z,7.72
2023-05-21T18:17:50.456Z,8.23
2023-05-21T18:20:19.862Z,8.82
2023-05-21T18:22:48.968Z,8.48
2023-05-21T18:25:20.974Z,10.77
2023-05-21T18:28:01.224Z,8.35
2023-05-21T18:30:35.348Z,8.13
2023-05-21T18:33:05.006Z,9.93
2023-05-21T18:35:35.964Z,9.02
2023-05-21T18:38:17.477Z,9.55
2023-05-21T18:40:47.234Z,7.93
2023-05-21T18:43:17.921Z,10.77
2023-05-21T18:45:48.854Z,8.05
2023-05-21T18:48:17.848Z,8.30
2023-05-21T18:50:47.467Z,7.85
2023-05-21T18:53:19.665Z,8.90
2023-05-21T18:55:50.826Z,11.38
2023-05-21T18:58:20.050Z,10.60
2023-05-21T19:00:50.472Z,9.85
2023-05-21T19:03:22.753Z,12.00
2023-05-21T19:05:51.773Z,8.82
2023-05-21T19:08:20.925Z,9.73
2023-05-21T19:10:49.983Z,9.82
2023-05-21T19:13:18.747Z,10.80
2023-05-21T19:15:49.467Z,9.18
2023-05-21T19:18:18.324Z,11.98
2023-05-21T19:20:47.216Z,9.60
2023-05-21T19:23:16.256Z,13.25
2023-05-21T19:25:45.158Z,9.88
2023-05-21T19:28:13.995Z,10.90
2023-05-21T19:30:42.838Z,10.55
2023-05-21T19:34:06.154Z,9.90
2023-05-21T19:36:51.567Z,9.77
2023-05-21T19:39:22.074Z,10.32
2023-05-21T19:41:51.791Z,10.32
2023-05-21T19:44:48.166Z,11.15
2023-05-21T19:47:16.916Z,13.20
2023-05-21T19:49:45.881Z,11.05
2023-05-21T19:52:16.300Z,12.43
2023-05-21T19:54:48.907Z,10.55
2023-05-21T19:57:17.789Z,10.85
2023-05-21T19:59:46.586Z,13.25
2023-05-21T20:02:17.177Z,13.50
2023-05-21T20:04:46.405Z,10.73
2023-05-21T20:07:16.756Z,12.43
2023-05-21T20:09:45.667Z,12.63
2023-05-21T20:12:16.281Z,12.90
2023-05-21T20:14:46.950Z,13.55
2023-05-21T20:17:15.922Z,10.73
2023-05-21T20:19:48.093Z,11.18
2023-05-21T20:22:18.343Z,15.57
2023-05-21T20:24:47.165Z,11.27
2023-05-21T20:27:19.662Z,12.60
2023-05-21T20:29:48.642Z,12.65
2023-05-21T20:32:17.335Z,14.60
2023-05-21T20:35:02.121Z,12.90
2023-05-21T20:37:34.075Z,12.45
2023-05-21T20:40:02.845Z,14.05
2023-05-21T20:42:35.060Z,12.43
2023-05-21T20:45:04.681Z,14.65
2023-05-21T20:47:34.030Z,12.43
2023-05-21T20:50:04.223Z,12.07
2023-05-21T20:52:34.448Z,12.27
2023-05-21T20:55:04.697Z,12.23
2023-05-21T20:57:33.611Z,12.82
2023-05-21T21:00:02.525Z,14.35
2023-05-21T21:02:31.534Z,12.93
2023-05-21T21:05:02.617Z,15.43
2023-05-21T21:07:37.267Z,17.20
2023-05-21T21:10:08.595Z,10.77
2023-05-21T21:12:44.327Z,13.07
2023-05-21T21:15:13.236Z,11.18
2023-05-21T21:17:42.008Z,11.85
2023-05-21T21:20:12.985Z,12.27
2023-05-21T21:22:41.904Z,13.05
2023-05-21T21:25:12.570Z,12.70
2023-05-21T21:27:42.577Z,13.95
2023-05-21T21:30:12.486Z,10.77
2023-05-21T21:32:41.691Z,15.85
2023-05-21T21:35:11.483Z,12.68
2023-05-21T21:37:40.366Z,12.73
2023-05-21T21:40:11.976Z,11.95
2023-05-21T21:42:41.367Z,11.55
2023-05-21T21:45:11.427Z,11.52
2023-05-21T21:47:40.345Z,11.77
2023-05-21T21:50:09.959Z,11.68
2023-05-21T21:52:40.644Z,12.02
2023-05-21T21:55:12.621Z,15.48
2023-05-21T21:57:41.313Z,12.82
2023-05-21T22:00:15.915Z,14.88
2023-05-21T22:02:46.640Z,11.15
2023-05-21T22:05:16.008Z,13.98
2023-05-21T22:07:46.769Z,12.18
2023-05-21T22:10:18.220Z,14.63
2023-05-21T22:12:47.408Z,13.50
2023-05-21T22:15:20.456Z,14.55
2023-05-21T22:17:50.284Z,12.18
2023-05-21T22:20:19.369Z,12.80
2023-05-21T22:22:48.130Z,14.65
2023-05-21T22:25:18.403Z,13.85
2023-05-21T22:27:47.045Z,14.70
2023-05-21T22:30:15.898Z,13.82
2023-05-21T22:32:44.757Z,16.67
2023-05-21T22:35:13.864Z,12.55
2023-05-21T22:37:42.741Z,15.57
2023-05-21T22:40:12.063Z,12.32
2023-05-21T22:42:42.287Z,13.10
2023-05-21T22:45:12.035Z,14.73
2023-05-21T22:47:41.065Z,13.25
2023-05-21T22:50:11.420Z,14.73
2023-05-21T22:52:40.343Z,15.57
2023-05-21T22:55:11.424Z,14.20
2023-05-21T22:57:41.763Z,15.82
2023-05-21T23:00:11.791Z,14.93
2023-05-21T23:02:40.553Z,12.75
2023-05-21T23:05:10.125Z,14.05
2023-05-21T23:07:39.069Z,13.57
2023-05-21T23:10:08.833Z,13.23
2023-05-21T23:12:38.810Z,15.07
2023-05-21T23:15:10.964Z,13.35
2023-05-21T23:17:39.889Z,14.57
2023-05-21T23:20:10.653Z,12.20
2023-05-21T23:22:39.446Z,15.75
2023-05-21T23:25:09.532Z,13.60
2023-05-21T23:27:38.424Z,16.15
2023-05-21T23:30:10.881Z,14.15
2023-05-21T23:32:39.592Z,13.23
2023-05-21T23:35:09.496Z,13.20
2023-05-21T23:37:38.240Z,13.68
2023-05-21T23:40:08.364Z,14.00
2023-05-21T23:42:37.119Z,13.70
2023-05-21T23:45:06.486Z,16.17
2023-05-21T23:47:36.960Z,14.02
2023-05-21T23:50:06.502Z,13.98
2023-05-21T23:52:35.888Z,17.02
2023-05-21T23:55:04.717Z,13.15
2023-05-21T23:57:33.434Z,15.63
